createdAt,value
2022-11-27T00:02:30.848Z,102556.31
2022-11-27T00:07:34.214Z,102546.56
2022-11-27T00:12:36.659Z,102542.19
2022-11-27T00:17:38.784Z,102551.16
2022-11-27T00:22:42.226Z,102543.06
2022-11-27T00:27:44.399Z,102543.25
2022-11-27T00:32:46.675Z,102547.59
2022-11-27T00:37:50.023Z,102543.19
2022-11-27T00:42:52.184Z,102541.19
2022-11-27T00:47:54.265Z,102537.47
2022-11-27T00:52:57.936Z,102544.06
2022-11-27T00:57:59.707Z,102530.00
2022-11-27T01:03:01.945Z,102527.22
2022-11-27T01:08:05.570Z,102525.78
2022-11-27T01:13:07.458Z,102520.53
2022-11-27T01:18:09.718Z,102510.94
2022-11-27T01:23:13.208Z,102514.09
2022-11-27T01:28:15.559Z,102505.72
2022-11-27T01:33:18.412Z,102495.47
2022-11-27T01:38:22.143Z,102503.47
2022-11-27T01:43:37.372Z,102486.31
2022-11-27T01:48:39.792Z,102480.06
2022-11-27T01:53:43.411Z,102470.47
2022-11-27T01:58:45.570Z,102470.88
2022-11-27T02:03:47.947Z,102464.97
2022-11-27T02:08:51.504Z,102471.13
2022-11-27T02:13:59.474Z,102462.44
2022-11-27T02:19:14.585Z,102477.78
2022-11-27T02:24:46.512Z,102489.53
2022-11-27T02:29:56.538Z,102489.63
2022-11-27T02:35:04.659Z,102484.69
2022-11-27T02:40:12.210Z,102486.75
2022-11-27T02:45:19.291Z,102485.03
2022-11-27T02:50:26.334Z,102489.91
2022-11-27T02:55:33.308Z,102494.22
2022-11-27T03:00:38.886Z,102479.63
2022-11-27T03:05:43.909Z,102483.38
2022-11-27T03:10:50.182Z,102463.78
2022-11-27T03:16:05.143Z,102455.97
2022-11-27T03:21:18.290Z,102461.22
2022-11-27T03:26:20.366Z,102463.16
2022-11-27T03:31:24.345Z,102465.84
2022-11-27T03:36:26.678Z,102463.22
2022-11-27T03:41:40.772Z,102468.47
2022-11-27T03:46:53.130Z,102469.03
2022-11-27T03:52:04.728Z,102450.66
2022-11-27T03:57:18.006Z,102465.34
2022-11-27T04:02:29.378Z,102463.25
2022-11-27T04:07:31.313Z,102463.09
2022-11-27T04:12:33.461Z,102462.75
2022-11-27T04:17:36.991Z,102455.41
2022-11-27T04:22:39.053Z,102456.25
2022-11-27T04:27:41.301Z,102443.66
2022-11-27T04:32:44.980Z,102451.34
2022-11-27T04:37:47.415Z,102445.66
2022-11-27T04:42:49.543Z,102454.91
2022-11-27T04:47:52.834Z,102446.91
2022-11-27T04:52:54.915Z,102449.47
2022-11-27T04:57:57.058Z,102455.53
2022-11-27T05:03:00.666Z,102458.81
2022-11-27T05:08:02.944Z,102448.06
2022-11-27T05:13:05.007Z,102457.22
2022-11-27T05:18:08.302Z,102450.28
2022-11-27T05:23:10.003Z,102449.75
2022-11-27T05:28:12.096Z,102461.78
2022-11-27T05:33:16.911Z,102453.31
2022-11-27T05:38:19.257Z,102452.78
2022-11-27T05:43:21.331Z,102455.56
2022-11-27T05:48:24.383Z,102446.53
2022-11-27T05:53:26.435Z,102434.00
2022-11-27T05:58:28.508Z,102432.16
2022-11-27T06:03:32.073Z,102432.66
2022-11-27T06:08:33.754Z,102422.59
2022-11-27T06:13:36.339Z,102415.59
2022-11-27T06:18:39.890Z,102417.34
2022-11-27T06:23:43.185Z,102434.03
2022-11-27T06:28:46.369Z,102426.13
2022-11-27T06:33:51.788Z,102424.16
2022-11-27T06:38:54.491Z,102421.63
2022-11-27T06:43:59.314Z,102430.47
2022-11-27T06:49:02.868Z,102417.09
2022-11-27T06:54:05.220Z,102426.44
2022-11-27T06:59:07.359Z,102424.06
2022-11-27T07:04:12.729Z,102403.81
2022-11-27T07:09:15.391Z,102391.88
2022-11-27T07:14:17.350Z,102390.22
2022-11-27T07:19:20.380Z,102391.72
2022-11-27T07:24:22.099Z,102396.47
2022-11-27T07:29:24.392Z,102395.06
2022-11-27T07:34:28.095Z,102390.88
2022-11-27T07:40:00.408Z,102384.69
2022-11-27T07:44:52.235Z,102374.53
2022-11-27T07:49:55.330Z,102379.94
2022-11-27T07:54:57.094Z,102383.84
2022-11-27T07:59:58.787Z,102393.00
2022-11-27T08:05:02.112Z,102388.88
2022-11-27T08:10:04.178Z,102395.06
2022-11-27T08:15:07.675Z,102370.84
2022-11-27T08:20:11.245Z,102385.53
2022-11-27T08:25:13.171Z,102378.66
2022-11-27T08:30:15.517Z,102361.38
2022-11-27T08:35:18.736Z,102370.19
2022-11-27T08:40:20.915Z,102365.31
2022-11-27T08:45:23.210Z,102364.94
2022-11-27T08:50:26.822Z,102363.72
2022-11-27T08:55:28.499Z,102348.25
2022-11-27T09:00:30.255Z,102351.66
2022-11-27T09:05:33.809Z,102355.03
2022-11-27T09:10:37.236Z,102348.53
2022-11-27T09:15:38.989Z,102345.72
2022-11-27T09:20:42.101Z,102355.91
2022-11-27T09:25:44.063Z,102346.06
2022-11-27T09:30:46.315Z,102331.25
2022-11-27T09:35:49.776Z,102324.56
2022-11-27T09:40:58.120Z,102329.25
2022-11-27T09:46:06.844Z,102331.41
2022-11-27T09:51:14.203Z,102334.03
2022-11-27T09:56:17.590Z,102325.59
2022-11-27T10:01:33.672Z,102330.53
2022-11-27T10:06:59.430Z,102333.41
2022-11-27T10:12:12.074Z,102325.44
2022-11-27T10:17:18.106Z,102314.03
2022-11-27T10:22:26.238Z,102310.78
2022-11-27T10:27:36.398Z,102306.41
2022-11-27T10:32:55.454Z,102309.38
2022-11-27T10:38:06.951Z,102296.88
2022-11-27T10:43:15.891Z,102297.88
2022-11-27T10:48:18.294Z,102283.88
2022-11-27T10:53:26.831Z,102267.84
2022-11-27T10:58:34.144Z,102266.56
2022-11-27T11:03:36.523Z,102257.63
2022-11-27T11:08:39.949Z,102288.69
2022-11-27T11:13:46.915Z,102265.38
2022-11-27T11:18:50.933Z,102258.09
2022-11-27T11:23:59.003Z,102257.94
2022-11-27T11:29:04.963Z,102253.16
2022-11-27T11:34:22.736Z,102245.03
2022-11-27T11:39:28.591Z,102238.75
2022-11-27T11:44:35.895Z,102243.19
2022-11-27T11:49:40.016Z,102237.69
2022-11-27T11:54:50.515Z,102236.09
2022-11-27T12:00:02.475Z,102230.09
2022-11-27T12:05:16.849Z,102224.75
2022-11-27T12:10:24.785Z,102219.19
2022-11-27T12:15:31.916Z,102207.50
2022-11-27T12:20:47.164Z,102192.06
2022-11-27T12:25:57.271Z,102183.09
2022-11-27T12:31:06.873Z,102169.34
2022-11-27T12:36:22.098Z,102162.97
2022-11-27T12:41:37.598Z,102161.50
2022-11-27T12:46:48.901Z,102136.31
2022-11-27T12:51:54.959Z,102135.25
2022-11-27T12:57:02.819Z,102129.88
2022-11-27T13:02:21.516Z,102138.53
2022-11-27T13:07:27.145Z,102140.72
2022-11-27T13:12:35.474Z,102123.56
2022-11-27T13:17:41.379Z,102116.13
2022-11-27T13:22:43.853Z,102106.25
2022-11-27T13:27:50.556Z,102101.38
2022-11-27T13:32:55.967Z,102097.50
2022-11-27T13:38:05.496Z,102088.34
2022-11-27T13:43:21.192Z,102086.47
2022-11-27T13:48:31.741Z,102078.94
2022-11-27T13:53:36.372Z,102076.81
2022-11-27T13:58:41.785Z,102078.09
2022-11-27T14:03:44.236Z,102070.63
2022-11-27T14:08:56.203Z,102069.28
2022-11-27T14:14:02.911Z,102062.72
2022-11-27T14:19:21.846Z,102072.97
2022-11-27T14:24:36.287Z,102064.03
2022-11-27T14:29:39.361Z,102067.31
2022-11-27T14:34:41.544Z,102066.00
2022-11-27T14:39:44.109Z,102061.13
2022-11-27T14:44:47.883Z,102059.66
2022-11-27T14:49:56.158Z,102053.06
2022-11-27T14:54:59.443Z,102054.13
2022-11-27T15:00:13.944Z,102040.44
2022-11-27T15:05:19.519Z,102047.91
2022-11-27T15:10:27.499Z,102041.31
2022-11-27T15:15:33.336Z,102033.88
2022-11-27T15:20:38.823Z,102022.34
2022-11-27T15:25:42.751Z,102026.50
2022-11-27T15:30:46.747Z,102029.94
2022-11-27T15:35:52.664Z,102026.22
2022-11-27T15:40:58.725Z,102020.13
2022-11-27T15:46:04.939Z,102018.19
2022-11-27T15:51:06.929Z,102012.69
2022-11-27T15:56:09.251Z,101996.84
2022-11-27T16:01:12.503Z,102005.38
2022-11-27T16:06:14.811Z,101987.78
2022-11-27T16:11:16.509Z,101977.28
2022-11-27T16:16:20.035Z,101980.84
2022-11-27T16:21:29.144Z,101974.75
2022-11-27T16:26:33.484Z,101965.06
2022-11-27T16:31:36.907Z,101965.06
2022-11-27T16:36:41.348Z,101954.38
2022-11-27T16:41:43.041Z,101958.81
2022-11-27T16:46:46.215Z,101962.38
2022-11-27T16:51:48.265Z,101952.78
2022-11-27T16:56:50.356Z,101940.41
2022-11-27T17:01:53.560Z,101928.19
2022-11-27T17:06:55.548Z,101930.13
2022-11-27T17:11:57.604Z,101922.00
2022-11-27T17:17:03.256Z,101909.78
2022-11-27T17:22:05.831Z,101894.78
2022-11-27T17:27:08.037Z,101900.28
2022-11-27T17:32:11.502Z,101890.63
2022-11-27T17:37:13.648Z,101893.16
2022-11-27T17:42:21.057Z,101886.22
2022-11-27T17:47:26.098Z,101876.44
2022-11-27T17:52:28.340Z,101875.31
2022-11-27T17:57:30.099Z,101861.94
2022-11-27T18:02:33.741Z,101863.00
2022-11-27T18:07:36.104Z,101853.38
2022-11-27T18:12:37.986Z,101847.81
2022-11-27T18:17:41.138Z,101847.25
2022-11-27T18:22:43.022Z,101845.38
2022-11-27T18:27:44.848Z,101835.75
2022-11-27T18:32:48.475Z,101838.34
2022-11-27T18:37:50.544Z,101837.25
2022-11-27T18:42:53.255Z,101836.38
2022-11-27T18:47:56.673Z,101836.38
2022-11-27T18:52:58.639Z,101832.59
2022-11-27T18:58:00.792Z,101836.06
2022-11-27T19:03:04.002Z,101819.44
2022-11-27T19:08:05.857Z,101824.69
2022-11-27T19:13:07.864Z,101822.78
2022-11-27T19:18:11.000Z,101810.56
2022-11-27T19:23:13.024Z,101799.75
2022-11-27T19:28:14.884Z,101808.09
2022-11-27T19:33:18.262Z,101801.91
2022-11-27T19:38:20.841Z,101796.41
2022-11-27T19:43:23.096Z,101779.59
2022-11-27T19:48:26.715Z,101798.66
2022-11-27T19:53:28.900Z,101792.47
2022-11-27T19:58:31.101Z,101796.66
2022-11-27T20:03:34.960Z,101793.03
2022-11-27T20:08:37.633Z,101793.56
2022-11-27T20:13:39.631Z,101798.66
2022-11-27T20:18:44.089Z,101786.59
2022-11-27T20:23:47.753Z,101783.44
2022-11-27T20:28:50.507Z,101793.28
2022-11-27T20:33:56.867Z,101792.97
2022-11-27T20:39:00.128Z,101793.50
2022-11-27T20:44:03.170Z,101784.19
2022-11-27T20:49:06.587Z,101772.50
2022-11-27T20:54:11.006Z,101764.53
2022-11-27T20:59:13.608Z,101753.13
2022-11-27T21:04:24.089Z,101750.31
2022-11-27T21:09:25.776Z,101757.09
2022-11-27T21:14:27.970Z,101741.22
2022-11-27T21:19:31.150Z,101738.59
2022-11-27T21:24:32.986Z,101732.41
2022-11-27T21:29:35.146Z,101722.66
2022-11-27T21:34:40.608Z,101719.19
2022-11-27T21:39:42.625Z,101720.13
2022-11-27T21:44:44.917Z,101711.38
2022-11-27T21:49:50.740Z,101710.59
2022-11-27T21:54:53.219Z,101698.16
2022-11-27T21:59:55.329Z,101696.44
2022-11-27T22:04:58.944Z,101697.41
2022-11-27T22:10:01.131Z,101699.44
2022-11-27T22:15:03.270Z,101700.84
2022-11-27T22:20:08.415Z,101694.53
2022-11-27T22:25:10.143Z,101690.28
2022-11-27T22:30:12.579Z,101681.34
2022-11-27T22:35:16.181Z,101675.38
2022-11-27T22:40:18.420Z,101685.84
2022-11-27T22:45:20.647Z,101684.28
2022-11-27T22:50:23.780Z,101685.28
2022-11-27T22:55:26.126Z,101677.56
2022-11-27T23:00:28.189Z,101674.16
2022-11-27T23:05:31.921Z,101670.84
2022-11-27T23:10:34.330Z,101679.69
2022-11-27T23:15:36.883Z,101663.03
2022-11-27T23:20:42.955Z,101661.47
2022-11-27T23:25:45.025Z,101658.03
2022-11-27T23:30:48.520Z,101663.28
2022-11-27T23:35:59.690Z,101649.25
2022-11-27T23:41:08.368Z,101647.69
2022-11-27T23:46:12.609Z,101640.81
2022-11-27T23:51:18.991Z,101639.94
2022-11-27T23:56:24.457Z,101627.75
